createdAt,value
2023-05-19T00:02:33.744Z,4.10
2023-05-19T00:05:20.094Z,3.47
2023-05-19T00:08:06.498Z,3.92
2023-05-19T00:10:52.659Z,4.18
2023-05-19T00:13:38.457Z,3.90
2023-05-19T00:16:26.361Z,4.57
2023-05-19T00:19:12.388Z,3.88
2023-05-19T00:21:58.811Z,3.95
2023-05-19T00:24:44.239Z,3.58
2023-05-19T00:27:29.518Z,3.92
2023-05-19T00:30:15.352Z,4.30
2023-05-19T00:33:01.047Z,3.78
2023-05-19T00:35:47.225Z,4.15
2023-05-19T00:38:35.555Z,4.20
2023-05-19T00:41:21.338Z,4.45
2023-05-19T00:44:07.578Z,4.05
2023-05-19T00:46:53.420Z,4.35
2023-05-19T00:49:38.683Z,4.13
2023-05-19T00:52:24.131Z,4.13
2023-05-19T00:55:11.597Z,3.90
2023-05-19T00:57:57.246Z,3.75
2023-05-19T01:00:43.346Z,3.90
2023-05-19T01:03:35.218Z,3.83
2023-05-19T01:06:22.172Z,4.30
2023-05-19T01:09:07.705Z,4.40
2023-05-19T01:11:53.556Z,3.90
2023-05-19T01:14:39.329Z,3.92
2023-05-19T01:17:40.428Z,3.85
2023-05-19T01:20:41.555Z,3.97
2023-05-19T01:23:49.412Z,3.40
2023-05-19T01:26:37.726Z,3.58
2023-05-19T01:29:29.454Z,3.60
2023-05-19T01:32:19.576Z,3.80
2023-05-19T01:35:07.151Z,4.10
2023-05-19T01:37:55.961Z,3.55
2023-05-19T01:40:43.744Z,4.68
2023-05-19T01:43:29.515Z,3.78
2023-05-19T01:46:16.308Z,3.08
2023-05-19T01:49:02.177Z,3.38
2023-05-19T01:51:49.837Z,3.70
2023-05-19T01:54:35.703Z,3.45
2023-05-19T01:57:46.025Z,2.95
2023-05-19T02:00:37.600Z,4.03
2023-05-19T02:03:42.284Z,3.40
2023-05-19T02:06:41.119Z,3.17
2023-05-19T02:09:31.187Z,3.05
2023-05-19T02:12:27.066Z,3.33
2023-05-19T02:15:24.655Z,3.30
2023-05-19T02:18:11.880Z,3.17
2023-05-19T02:20:57.485Z,3.67
2023-05-19T02:23:43.039Z,4.05
2023-05-19T02:26:28.385Z,4.10
2023-05-19T02:29:13.904Z,3.80
2023-05-19T02:32:02.120Z,3.80
2023-05-19T02:34:48.361Z,3.63
2023-05-19T02:37:34.056Z,3.42
2023-05-19T02:40:19.826Z,4.28
2023-05-19T02:43:05.054Z,4.47
2023-05-19T02:45:50.976Z,4.15
2023-05-19T02:48:36.241Z,4.00
2023-05-19T02:51:22.111Z,4.18
2023-05-19T02:54:07.456Z,4.80
2023-05-19T02:56:52.807Z,4.25
2023-05-19T02:59:38.460Z,4.50
2023-05-19T03:02:23.737Z,4.15
2023-05-19T03:05:10.367Z,4.10
2023-05-19T03:07:55.988Z,3.78
2023-05-19T03:10:42.370Z,3.85
2023-05-19T03:13:27.691Z,4.55
2023-05-19T03:16:14.138Z,4.13
2023-05-19T03:19:00.152Z,4.15
2023-05-19T03:21:46.374Z,4.32
2023-05-19T03:24:31.643Z,4.28
2023-05-19T03:27:17.749Z,3.78
2023-05-19T03:30:06.334Z,3.53
2023-05-19T03:35:40.955Z,3.75
2023-05-19T03:38:26.881Z,3.53
2023-05-19T03:41:16.245Z,4.00
2023-05-19T03:44:02.641Z,3.42
2023-05-19T03:46:48.718Z,3.55
2023-05-19T03:49:54.995Z,3.70
2023-05-19T03:53:18.956Z,3.90
2023-05-19T03:56:04.665Z,3.35
2023-05-19T03:58:51.299Z,4.07
2023-05-19T04:01:37.725Z,4.03
2023-05-19T04:04:23.872Z,3.78
2023-05-19T04:07:09.601Z,3.10
2023-05-19T04:09:55.061Z,3.58
2023-05-19T04:12:41.344Z,3.90
2023-05-19T04:15:27.667Z,3.83
2023-05-19T04:18:13.936Z,3.67
2023-05-19T04:20:59.564Z,3.15
2023-05-19T04:23:44.981Z,4.10
2023-05-19T04:26:31.222Z,4.10
2023-05-19T04:29:18.177Z,3.72
2023-05-19T04:32:07.818Z,3.97
2023-05-19T04:34:54.203Z,3.80
2023-05-19T04:37:48.511Z,3.67
2023-05-19T04:40:37.160Z,3.85
2023-05-19T04:43:23.104Z,5.05
2023-05-19T04:46:13.455Z,4.38
2023-05-19T04:49:03.052Z,3.80
2023-05-19T04:51:50.562Z,3.92
2023-05-19T04:54:41.930Z,4.45
2023-05-19T04:57:30.536Z,4.10
2023-05-19T05:00:16.915Z,4.30
2023-05-19T05:03:14.527Z,4.13
2023-05-19T05:06:00.287Z,4.68
2023-05-19T05:08:46.185Z,5.28
2023-05-19T05:11:32.946Z,4.22
2023-05-19T05:14:19.969Z,5.65
2023-05-19T05:17:06.437Z,6.05
2023-05-19T05:19:52.200Z,5.45
2023-05-19T05:22:39.711Z,5.47
2023-05-19T05:25:26.722Z,6.47
2023-05-19T05:28:12.211Z,5.35
2023-05-19T05:30:58.038Z,5.93
2023-05-19T05:33:43.828Z,5.55
2023-05-19T05:36:30.768Z,6.25
2023-05-19T05:39:16.537Z,5.53
2023-05-19T05:42:03.927Z,5.07
2023-05-19T05:44:49.301Z,5.75
2023-05-19T05:47:39.860Z,6.10
2023-05-19T05:50:26.364Z,4.95
2023-05-19T05:53:18.909Z,4.65
2023-05-19T05:56:06.095Z,5.20
2023-05-19T05:59:00.266Z,5.45
2023-05-19T06:01:45.575Z,4.65
2023-05-19T06:04:31.120Z,4.90
2023-05-19T06:07:16.788Z,5.28
2023-05-19T06:10:03.438Z,4.72
2023-05-19T06:12:49.142Z,5.32
2023-05-19T06:15:34.331Z,5.25
2023-05-19T06:18:29.368Z,5.28
2023-05-19T06:21:15.003Z,5.85
2023-05-19T06:24:01.150Z,6.07
2023-05-19T06:26:46.451Z,6.20
2023-05-19T06:29:31.851Z,5.40
2023-05-19T06:32:21.134Z,5.43
2023-05-19T06:35:08.603Z,5.03
2023-05-19T06:37:55.771Z,5.60
2023-05-19T06:40:41.055Z,5.85
2023-05-19T06:43:26.881Z,5.03
2023-05-19T06:46:14.587Z,5.28
2023-05-19T06:49:02.698Z,5.90
2023-05-19T06:51:52.902Z,5.70
2023-05-19T06:54:39.736Z,4.45
2023-05-19T06:57:25.808Z,5.20
2023-05-19T07:00:13.966Z,5.82
2023-05-19T07:03:05.152Z,6.10
2023-05-19T07:05:50.467Z,5.32
2023-05-19T07:08:37.415Z,5.35
2023-05-19T07:11:24.732Z,5.20
2023-05-19T07:14:09.953Z,4.45
2023-05-19T07:16:55.463Z,4.88
2023-05-19T07:19:41.163Z,5.05
2023-05-19T07:22:27.187Z,4.88
2023-05-19T07:25:14.308Z,6.38
2023-05-19T07:27:59.933Z,6.45
2023-05-19T07:30:46.668Z,6.38
2023-05-19T07:33:31.931Z,6.30
2023-05-19T07:36:17.258Z,6.05
2023-05-19T07:39:02.751Z,6.07
2023-05-19T07:41:52.715Z,5.80
2023-05-19T07:44:38.349Z,5.93
2023-05-19T07:47:23.690Z,5.30
2023-05-19T07:50:09.116Z,4.90
2023-05-19T07:52:54.474Z,4.80
2023-05-19T07:55:40.007Z,5.38
2023-05-19T07:58:25.671Z,5.10
2023-05-19T08:01:11.039Z,4.72
2023-05-19T08:03:56.765Z,4.78
2023-05-19T08:06:44.422Z,4.82
2023-05-19T08:09:30.122Z,4.90
2023-05-19T08:12:15.348Z,4.50
2023-05-19T08:15:01.975Z,5.55
2023-05-19T08:17:47.995Z,4.75
2023-05-19T08:20:34.139Z,4.95
2023-05-19T08:23:19.816Z,5.57
2023-05-19T08:26:05.537Z,6.88
2023-05-19T08:28:51.271Z,7.13
2023-05-19T08:31:36.678Z,7.28
2023-05-19T08:34:22.433Z,8.88
2023-05-19T08:37:08.339Z,12.02
2023-05-19T08:39:53.567Z,11.70
2023-05-19T08:42:38.978Z,12.45
2023-05-19T08:45:24.522Z,13.55
2023-05-19T08:48:10.074Z,12.38
2023-05-19T08:51:03.387Z,13.68
2023-05-19T08:53:51.817Z,16.05
2023-05-19T08:56:37.985Z,14.88
2023-05-19T08:59:23.514Z,14.15
2023-05-19T09:02:13.049Z,13.30
2023-05-19T09:04:58.622Z,13.35
2023-05-19T09:07:45.202Z,13.43
2023-05-19T09:10:30.852Z,13.25
2023-05-19T09:13:16.514Z,13.73
2023-05-19T09:16:03.539Z,13.25
2023-05-19T09:18:57.042Z,13.05
2023-05-19T09:21:44.043Z,13.27
2023-05-19T09:24:30.627Z,13.65
2023-05-19T09:27:23.502Z,14.00
2023-05-19T09:30:10.378Z,14.80
2023-05-19T09:32:56.265Z,12.45
2023-05-19T09:35:47.281Z,12.48
2023-05-19T09:38:33.059Z,12.57
2023-05-19T09:41:18.896Z,12.55
2023-05-19T09:44:05.344Z,12.63
2023-05-19T09:46:52.901Z,11.10
2023-05-19T09:49:46.843Z,11.95
2023-05-19T09:52:44.044Z,12.70
2023-05-19T09:55:29.771Z,12.98
2023-05-19T09:58:21.702Z,13.55
2023-05-19T10:01:07.853Z,12.60
2023-05-19T10:03:53.801Z,13.07
2023-05-19T10:06:39.478Z,12.50
2023-05-19T10:09:26.083Z,14.23
2023-05-19T10:12:13.341Z,13.77
2023-05-19T10:14:59.559Z,13.55
2023-05-19T10:17:45.569Z,14.52
2023-05-19T10:20:31.767Z,13.80
2023-05-19T10:23:17.736Z,15.13
2023-05-19T10:26:06.634Z,14.98
2023-05-19T10:28:52.695Z,15.45
2023-05-19T10:31:40.409Z,16.67
2023-05-19T10:34:37.473Z,15.38
2023-05-19T10:37:45.193Z,15.52
2023-05-19T10:40:36.833Z,16.08
2023-05-19T10:46:40.848Z,15.57
2023-05-19T10:49:36.612Z,16.13
2023-05-19T10:52:25.795Z,17.45
2023-05-19T10:55:17.665Z,16.40
2023-05-19T10:58:45.771Z,16.88
2023-05-19T11:01:33.324Z,16.48
2023-05-19T11:04:51.777Z,16.88
2023-05-19T11:07:41.383Z,16.90
2023-05-19T11:10:27.331Z,15.15
2023-05-19T11:13:23.154Z,16.65
2023-05-19T11:16:09.308Z,15.85
2023-05-19T11:18:56.650Z,15.13
2023-05-19T11:22:13.907Z,16.23
2023-05-19T11:24:59.334Z,15.23
2023-05-19T11:27:46.695Z,14.80
2023-05-19T11:30:32.623Z,14.68
2023-05-19T11:33:27.509Z,14.68
2023-05-19T11:36:13.635Z,15.32
2023-05-19T11:39:00.033Z,14.02
2023-05-19T11:41:45.630Z,14.32
2023-05-19T11:44:31.909Z,14.75
2023-05-19T11:47:17.438Z,15.52
2023-05-19T11:50:02.945Z,15.27
2023-05-19T11:52:48.882Z,15.13
2023-05-19T11:55:34.390Z,15.52
2023-05-19T11:58:27.847Z,15.68
2023-05-19T12:01:13.939Z,16.92
2023-05-19T12:03:59.611Z,17.40
2023-05-19T12:06:49.259Z,16.42
2023-05-19T12:09:34.880Z,17.38
2023-05-19T12:12:21.547Z,16.55
2023-05-19T12:15:08.349Z,16.88
2023-05-19T12:17:59.699Z,16.73
2023-05-19T12:20:47.366Z,15.75
2023-05-19T12:23:34.201Z,14.93
2023-05-19T12:26:22.368Z,14.80
2023-05-19T12:29:08.206Z,13.85
2023-05-19T12:32:08.131Z,13.10
2023-05-19T12:34:56.413Z,12.85
2023-05-19T12:37:49.242Z,13.00
2023-05-19T12:40:36.276Z,14.73
2023-05-19T12:43:25.292Z,12.30
2023-05-19T12:46:11.987Z,11.90
2023-05-19T12:49:01.060Z,10.65
2023-05-19T12:51:54.218Z,11.43
2023-05-19T12:54:40.494Z,10.45
2023-05-19T12:57:27.656Z,9.38
2023-05-19T13:00:14.065Z,9.27
2023-05-19T13:03:00.261Z,7.95
2023-05-19T13:05:47.833Z,8.18
2023-05-19T13:08:33.918Z,8.38
2023-05-19T13:11:19.472Z,8.13
2023-05-19T13:14:04.906Z,7.65
2023-05-19T13:16:50.441Z,6.85
2023-05-19T13:19:35.700Z,7.25
2023-05-19T13:22:21.024Z,7.63
2023-05-19T13:25:07.578Z,7.80
2023-05-19T13:27:54.520Z,8.40
2023-05-19T13:30:41.509Z,7.45
2023-05-19T13:33:27.472Z,7.65
2023-05-19T13:36:12.742Z,7.45
2023-05-19T13:38:58.508Z,6.10
2023-05-19T13:41:44.091Z,7.10
2023-05-19T13:44:29.372Z,7.03
2023-05-19T13:47:15.309Z,7.47
2023-05-19T13:50:00.771Z,6.75
2023-05-19T13:52:46.089Z,7.57
2023-05-19T13:55:32.441Z,6.70
2023-05-19T13:58:18.018Z,7.60
2023-05-19T14:01:03.878Z,6.82
2023-05-19T14:03:49.483Z,6.88
2023-05-19T14:06:35.299Z,7.10
2023-05-19T14:09:20.876Z,6.93
2023-05-19T14:12:07.226Z,6.55
2023-05-19T14:14:52.643Z,7.40
2023-05-19T14:17:38.238Z,6.82
2023-05-19T14:20:23.443Z,6.35
2023-05-19T14:23:08.769Z,6.90
2023-05-19T14:25:54.140Z,6.72
2023-05-19T14:28:39.558Z,6.55
2023-05-19T14:31:24.799Z,6.55
2023-05-19T14:34:11.960Z,6.22
2023-05-19T14:36:57.849Z,6.85
2023-05-19T14:39:43.956Z,7.43
2023-05-19T14:42:29.471Z,6.18
2023-05-19T14:45:15.456Z,7.15
2023-05-19T14:48:01.515Z,6.28
2023-05-19T14:50:48.439Z,6.57
2023-05-19T14:53:34.405Z,6.78
2023-05-19T14:56:19.740Z,6.45
2023-05-19T14:59:05.211Z,7.03
2023-05-19T15:01:50.561Z,6.30
2023-05-19T15:04:36.051Z,6.50
2023-05-19T15:07:21.630Z,6.70
2023-05-19T15:10:07.915Z,6.55
2023-05-19T15:12:53.682Z,6.80
2023-05-19T15:15:39.250Z,6.88
2023-05-19T15:18:26.042Z,6.43
2023-05-19T15:21:11.897Z,6.50
2023-05-19T15:23:57.241Z,6.78
2023-05-19T15:26:42.573Z,6.65
2023-05-19T15:29:28.128Z,6.88
2023-05-19T15:32:14.263Z,6.88
2023-05-19T15:34:59.512Z,6.78
2023-05-19T15:37:44.779Z,6.80
2023-05-19T15:40:30.193Z,6.60
2023-05-19T15:43:16.148Z,6.72
2023-05-19T15:46:01.642Z,10.00
2023-05-19T15:48:47.413Z,9.60
2023-05-19T15:51:32.819Z,6.75
2023-05-19T15:54:18.087Z,6.47
2023-05-19T15:57:03.861Z,6.75
2023-05-19T15:59:49.235Z,33.60
2023-05-19T16:02:34.770Z,7.90
2023-05-19T16:05:20.524Z,7.55
2023-05-19T16:08:08.386Z,6.57
2023-05-19T16:10:55.206Z,6.05
2023-05-19T16:13:40.677Z,6.25
2023-05-19T16:16:26.084Z,6.32
2023-05-19T16:19:11.351Z,6.30
2023-05-19T16:21:57.684Z,6.57
2023-05-19T16:24:43.868Z,6.40
2023-05-19T16:27:29.367Z,7.30
2023-05-19T16:30:15.137Z,7.13
2023-05-19T16:33:00.838Z,6.47
2023-05-19T16:35:46.479Z,6.22
2023-05-19T16:38:32.658Z,6.18
2023-05-19T16:41:18.151Z,6.75
2023-05-19T16:44:03.563Z,6.22
2023-05-19T16:46:49.055Z,7.60
2023-05-19T16:49:34.611Z,6.47
2023-05-19T16:52:20.185Z,7.07
2023-05-19T16:55:07.089Z,7.22
2023-05-19T16:57:53.680Z,6.95
2023-05-19T17:00:38.941Z,6.72
2023-05-19T17:03:24.499Z,7.00
2023-05-19T17:06:10.302Z,7.65
2023-05-19T17:08:55.651Z,7.50
2023-05-19T17:11:41.536Z,7.70
2023-05-19T17:14:27.043Z,7.28
2023-05-19T17:17:12.701Z,7.40
2023-05-19T17:19:58.205Z,7.63
2023-05-19T17:22:43.602Z,7.53
2023-05-19T17:25:29.131Z,7.75
2023-05-19T17:28:14.323Z,8.38
2023-05-19T17:30:59.649Z,8.70
2023-05-19T17:33:45.153Z,7.45
2023-05-19T17:36:30.988Z,8.02
2023-05-19T17:39:16.681Z,7.35
2023-05-19T17:42:02.251Z,8.32
2023-05-19T17:44:47.678Z,8.00
2023-05-19T17:47:34.033Z,7.70
2023-05-19T17:50:19.434Z,8.05
2023-05-19T17:53:05.255Z,8.60
2023-05-19T17:55:55.931Z,8.63
2023-05-19T17:58:42.283Z,8.52
2023-05-19T18:01:28.130Z,9.70
2023-05-19T18:04:16.065Z,9.15
2023-05-19T18:07:03.641Z,9.13
2023-05-19T18:09:51.364Z,8.65
2023-05-19T18:12:36.817Z,9.35
2023-05-19T18:15:22.290Z,8.18
2023-05-19T18:18:10.397Z,9.07
2023-05-19T18:20:55.661Z,9.50
2023-05-19T18:23:41.535Z,9.15
2023-05-19T18:26:27.089Z,9.63
2023-05-19T18:29:14.944Z,10.23
2023-05-19T18:32:01.233Z,10.50
2023-05-19T18:34:46.837Z,11.00
2023-05-19T18:37:32.724Z,10.77
2023-05-19T18:40:18.667Z,15.60
2023-05-19T18:43:08.146Z,14.27
2023-05-19T18:45:54.238Z,11.65
2023-05-19T18:48:39.622Z,13.27
2023-05-19T18:51:25.232Z,11.70
2023-05-19T18:54:12.428Z,11.70
2023-05-19T18:56:58.629Z,11.20
2023-05-19T18:59:44.256Z,11.82
2023-05-19T19:02:29.661Z,11.85
2023-05-19T19:05:15.520Z,11.85
2023-05-19T19:08:01.194Z,11.35
2023-05-19T19:10:50.397Z,11.88
2023-05-19T19:13:36.254Z,13.73
2023-05-19T19:16:23.692Z,12.98
2023-05-19T19:19:09.958Z,11.95
2023-05-19T19:21:55.444Z,13.05
2023-05-19T19:24:43.102Z,15.60
2023-05-19T19:27:31.071Z,16.35
2023-05-19T19:30:16.574Z,11.15
2023-05-19T19:33:02.699Z,11.85
2023-05-19T19:35:49.365Z,11.80
2023-05-19T19:38:34.743Z,12.23
2023-05-19T19:41:20.119Z,11.68
2023-05-19T19:44:05.596Z,11.48
2023-05-19T19:46:51.993Z,11.73
2023-05-19T19:49:37.744Z,13.07
2023-05-19T19:52:23.203Z,14.25
2023-05-19T19:55:09.265Z,12.02
2023-05-19T19:57:55.901Z,12.20
2023-05-19T20:00:41.358Z,12.63
2023-05-19T20:03:27.063Z,12.07
2023-05-19T20:06:13.401Z,12.15
2023-05-19T20:08:59.182Z,11.82
2023-05-19T20:11:44.858Z,12.93
2023-05-19T20:14:30.596Z,12.10
2023-05-19T20:17:16.211Z,12.95
2023-05-19T20:20:04.726Z,11.40
2023-05-19T20:22:50.338Z,11.60
2023-05-19T20:25:54.761Z,12.00
2023-05-19T20:28:48.171Z,11.73
2023-05-19T20:31:34.241Z,11.68
2023-05-19T20:34:19.856Z,12.60
2023-05-19T20:37:05.872Z,13.32
2023-05-19T20:39:51.172Z,11.93
2023-05-19T20:42:39.074Z,12.07
2023-05-19T20:45:24.448Z,11.82
2023-05-19T20:48:11.158Z,12.43
2023-05-19T20:50:57.605Z,11.80
2023-05-19T20:53:42.963Z,11.70
2023-05-19T20:56:28.277Z,12.10
2023-05-19T20:59:13.856Z,12.30
2023-05-19T21:01:59.281Z,13.75
2023-05-19T21:04:46.025Z,12.65
2023-05-19T21:07:31.360Z,12.45
2023-05-19T21:10:17.925Z,12.50
2023-05-19T21:13:03.198Z,12.13
2023-05-19T21:15:48.877Z,11.90
2023-05-19T21:18:34.924Z,11.73
2023-05-19T21:21:20.301Z,12.80
2023-05-19T21:24:05.916Z,12.77
2023-05-19T21:26:52.064Z,13.10
2023-05-19T21:29:37.480Z,13.25
2023-05-19T21:32:22.982Z,12.68
2023-05-19T21:35:08.887Z,12.50
2023-05-19T21:37:54.624Z,13.00
2023-05-19T21:40:40.346Z,12.88
2023-05-19T21:43:26.716Z,12.43
2023-05-19T21:46:12.017Z,12.48
2023-05-19T21:48:57.327Z,13.23
2023-05-19T21:51:42.580Z,13.25
2023-05-19T21:54:27.998Z,14.15
2023-05-19T21:57:13.214Z,11.40
2023-05-19T21:59:58.664Z,12.55
2023-05-19T22:02:45.007Z,12.38
2023-05-19T22:05:32.387Z,12.45
2023-05-19T22:08:19.420Z,13.07
2023-05-19T22:11:05.206Z,13.75
2023-05-19T22:13:50.630Z,14.00
2023-05-19T22:16:36.350Z,13.10
2023-05-19T22:19:21.863Z,13.80
2023-05-19T22:22:13.834Z,12.73
2023-05-19T22:25:00.255Z,13.48
2023-05-19T22:27:45.624Z,12.82
2023-05-19T22:30:32.544Z,12.65
2023-05-19T22:33:19.480Z,13.13
2023-05-19T22:36:05.605Z,12.82
2023-05-19T22:38:51.515Z,13.38
2023-05-19T22:41:37.331Z,12.32
2023-05-19T22:44:22.529Z,13.02
2023-05-19T22:47:13.349Z,12.70
2023-05-19T22:49:59.320Z,13.30
2023-05-19T22:52:44.970Z,13.50
2023-05-19T22:55:30.399Z,13.52
2023-05-19T22:58:16.292Z,12.88
2023-05-19T23:01:01.595Z,13.85
2023-05-19T23:03:47.268Z,15.07
2023-05-19T23:06:32.508Z,13.32
2023-05-19T23:09:18.105Z,13.73
2023-05-19T23:12:03.658Z,14.20
2023-05-19T23:14:49.118Z,14.23
2023-05-19T23:17:34.532Z,12.85
2023-05-19T23:20:20.100Z,13.38
2023-05-19T23:23:05.798Z,14.02
2023-05-19T23:25:51.478Z,13.35
2023-05-19T23:28:36.659Z,13.18
2023-05-19T23:31:21.995Z,12.70
2023-05-19T23:34:08.634Z,13.98
2023-05-19T23:36:54.081Z,13.52
2023-05-19T23:39:39.522Z,13.75
2023-05-19T23:42:24.778Z,13.82
2023-05-19T23:45:10.618Z,15.05
2023-05-19T23:47:56.258Z,15.85
2023-05-19T23:50:41.616Z,15.40
2023-05-19T23:53:27.163Z,14.23
2023-05-19T23:56:12.421Z,14.82
2023-05-19T23:58:57.790Z,13.95
